createdAt,value
2023-01-13T00:00:36.455Z,1.22
2023-01-13T00:03:40.723Z,1.20
2023-01-13T00:06:42.995Z,1.12
2023-01-13T00:09:45.513Z,1.05
2023-01-13T00:12:47.667Z,1.02
2023-01-13T00:16:01.778Z,1.01
2023-01-13T00:19:03.888Z,1.02
2023-01-13T00:22:06.768Z,1.00
2023-01-13T00:25:09.468Z,1.03
2023-01-13T00:28:12.067Z,1.04
2023-01-13T00:31:17.317Z,1.04
2023-01-13T00:34:20.070Z,1.08
2023-01-13T00:37:22.460Z,1.14
2023-01-13T00:40:24.966Z,1.12
2023-01-13T00:43:29.505Z,1.03
2023-01-13T00:46:32.324Z,1.08
2023-01-13T00:49:34.619Z,1.00
2023-01-13T00:52:37.135Z,0.87
2023-01-13T00:55:39.767Z,0.83
2023-01-13T00:58:44.256Z,0.83
2023-01-13T01:01:46.587Z,0.84
2023-01-13T01:04:49.272Z,0.87
2023-01-13T01:07:51.602Z,0.85
2023-01-13T01:11:03.322Z,0.87
2023-01-13T01:14:05.626Z,0.83
2023-01-13T01:17:08.216Z,0.91
2023-01-13T01:20:11.088Z,0.99
2023-01-13T01:23:13.623Z,0.95
2023-01-13T01:26:24.735Z,0.96
2023-01-13T01:29:27.470Z,0.97
2023-01-13T01:32:29.690Z,1.22
2023-01-13T01:35:32.245Z,1.22
2023-01-13T01:38:34.394Z,1.20
2023-01-13T01:41:37.347Z,1.06
2023-01-13T01:44:42.374Z,1.01
2023-01-13T01:47:47.623Z,1.04
2023-01-13T01:50:49.967Z,1.05
2023-01-13T01:53:55.234Z,1.05
2023-01-13T01:56:58.076Z,0.91
2023-01-13T02:00:02.375Z,0.73
2023-01-13T02:03:16.153Z,0.70
2023-01-13T02:06:19.060Z,0.61
2023-01-13T02:09:21.237Z,0.57
2023-01-13T02:12:32.500Z,0.53
2023-01-13T02:16:05.956Z,0.53
2023-01-13T02:19:19.418Z,0.65
2023-01-13T02:23:03.371Z,0.73
2023-01-13T02:26:33.166Z,0.70
2023-01-13T02:30:50.963Z,0.83
2023-01-13T02:34:13.670Z,0.83
2023-01-13T02:37:28.797Z,0.85
2023-01-13T02:40:31.482Z,0.82
2023-01-13T02:43:57.682Z,0.91
2023-01-13T02:47:22.621Z,0.95
2023-01-13T02:50:32.311Z,1.01
2023-01-13T02:53:41.749Z,1.01
2023-01-13T02:56:48.400Z,0.82
2023-01-13T02:59:55.137Z,0.80
2023-01-13T03:02:57.771Z,0.94
2023-01-13T03:06:09.084Z,0.94
2023-01-13T03:09:39.567Z,0.82
2023-01-13T03:13:01.012Z,0.66
2023-01-13T03:16:23.421Z,0.60
2023-01-13T03:19:46.887Z,0.69
2023-01-13T03:22:55.304Z,0.85
2023-01-13T03:26:10.835Z,0.77
2023-01-13T03:29:25.627Z,0.70
2023-01-13T03:32:36.702Z,0.70
2023-01-13T03:35:44.962Z,0.76
2023-01-13T03:38:53.935Z,0.95
2023-01-13T03:42:02.259Z,0.84
2023-01-13T03:45:17.842Z,0.75
2023-01-13T03:48:22.873Z,0.68
2023-01-13T03:51:31.356Z,0.75
2023-01-13T03:54:39.346Z,0.69
2023-01-13T03:57:50.050Z,0.71
2023-01-13T04:01:04.081Z,0.72
2023-01-13T04:04:14.045Z,0.75
2023-01-13T04:07:42.696Z,0.79
2023-01-13T04:10:53.641Z,0.85
2023-01-13T04:13:56.728Z,0.86
2023-01-13T04:16:59.331Z,0.95
2023-01-13T04:20:01.622Z,1.02
2023-01-13T04:23:04.294Z,1.10
2023-01-13T04:26:06.608Z,1.15
2023-01-13T04:29:09.187Z,1.10
2023-01-13T04:32:11.427Z,1.18
2023-01-13T04:35:14.115Z,1.23
2023-01-13T04:38:19.992Z,1.16
2023-01-13T04:41:22.644Z,1.21
2023-01-13T04:44:26.092Z,1.21
2023-01-13T04:47:28.692Z,1.25
2023-01-13T04:50:31.220Z,1.27
2023-01-13T04:53:33.885Z,1.39
2023-01-13T04:56:39.551Z,1.51
2023-01-13T04:59:46.212Z,1.59
2023-01-13T05:02:52.163Z,1.51
2023-01-13T05:05:54.691Z,1.41
2023-01-13T05:08:57.747Z,1.31
2023-01-13T05:12:19.107Z,1.45
2023-01-13T05:15:39.888Z,1.49
2023-01-13T05:18:42.592Z,1.44
2023-01-13T05:22:03.265Z,1.59
2023-01-13T05:25:24.678Z,1.38
2023-01-13T05:28:31.595Z,1.33
2023-01-13T05:31:34.305Z,1.48
2023-01-13T05:34:36.998Z,1.38
2023-01-13T05:37:39.686Z,1.36
2023-01-13T05:41:01.132Z,1.25
2023-01-13T05:44:04.268Z,1.37
2023-01-13T05:47:06.813Z,1.33
2023-01-13T05:50:10.450Z,1.19
2023-01-13T05:53:13.463Z,1.12
2023-01-13T05:56:17.939Z,1.15
2023-01-13T05:59:19.987Z,1.15
2023-01-13T06:02:26.889Z,1.18
2023-01-13T06:05:30.783Z,1.14
2023-01-13T06:08:33.034Z,1.17
2023-01-13T06:11:36.149Z,1.15
2023-01-13T06:14:41.276Z,1.22
2023-01-13T06:17:44.172Z,1.22
2023-01-13T06:20:47.207Z,1.18
2023-01-13T06:23:49.799Z,1.19
2023-01-13T06:26:52.166Z,1.24
2023-01-13T06:29:56.677Z,1.36
2023-01-13T06:33:01.903Z,1.38
2023-01-13T06:36:13.828Z,1.27
2023-01-13T06:39:20.217Z,1.25
2023-01-13T06:42:41.542Z,1.48
2023-01-13T06:45:51.123Z,1.43
2023-01-13T06:48:53.848Z,1.36
2023-01-13T06:51:56.084Z,1.32
2023-01-13T06:54:58.638Z,1.40
2023-01-13T06:58:02.553Z,1.38
2023-01-13T07:01:06.760Z,1.37
2023-01-13T07:04:09.088Z,1.41
2023-01-13T07:07:12.456Z,1.48
2023-01-13T07:10:22.089Z,1.47
2023-01-13T07:13:43.745Z,1.61
2023-01-13T07:16:46.859Z,1.65
2023-01-13T07:19:49.557Z,1.67
2023-01-13T07:22:55.866Z,1.81
2023-01-13T07:25:59.568Z,1.99
2023-01-13T07:29:01.859Z,1.85
2023-01-13T07:32:05.541Z,1.95
2023-01-13T07:35:08.087Z,2.01
2023-01-13T07:38:12.245Z,2.03
2023-01-13T07:41:33.654Z,2.29
2023-01-13T07:44:36.489Z,2.56
2023-01-13T07:47:39.131Z,2.50
2023-01-13T07:50:44.056Z,2.52
2023-01-13T07:53:46.604Z,2.75
2023-01-13T07:56:49.205Z,2.66
2023-01-13T07:59:51.424Z,2.79
2023-01-13T08:02:53.971Z,2.88
2023-01-13T08:05:56.572Z,2.80
2023-01-13T08:08:58.935Z,2.85
2023-01-13T08:12:21.116Z,2.89
2023-01-13T08:15:23.852Z,2.99
2023-01-13T08:18:26.472Z,3.07
2023-01-13T08:21:28.862Z,3.01
2023-01-13T08:24:31.538Z,2.72
2023-01-13T08:27:34.125Z,2.82
2023-01-13T08:30:36.887Z,2.48
2023-01-13T08:33:40.067Z,2.46
2023-01-13T08:36:42.673Z,2.58
2023-01-13T08:39:44.946Z,2.62
2023-01-13T08:42:48.727Z,2.56
2023-01-13T08:46:22.447Z,2.58
2023-01-13T08:49:25.913Z,2.76
2023-01-13T08:52:30.630Z,2.97
2023-01-13T08:55:33.344Z,3.07
2023-01-13T08:58:35.734Z,3.09
2023-01-13T09:01:39.435Z,3.02
2023-01-13T09:04:42.124Z,2.91
2023-01-13T09:07:45.049Z,2.97
2023-01-13T09:10:47.518Z,2.79
2023-01-13T09:13:50.533Z,2.53
2023-01-13T09:16:52.820Z,2.46
2023-01-13T09:19:55.869Z,2.27
2023-01-13T09:22:58.133Z,2.23
2023-01-13T09:26:00.829Z,2.51
2023-01-13T09:29:03.589Z,2.42
2023-01-13T09:32:07.142Z,2.31
2023-01-13T09:35:09.778Z,2.41
2023-01-13T09:38:12.759Z,2.45
2023-01-13T09:41:39.699Z,2.76
2023-01-13T09:45:01.698Z,2.76
2023-01-13T09:48:22.545Z,2.88
2023-01-13T09:51:34.591Z,2.55
2023-01-13T09:54:44.326Z,2.58
2023-01-13T09:57:47.105Z,2.65
2023-01-13T10:00:55.522Z,2.42
2023-01-13T10:04:03.866Z,2.37
2023-01-13T10:07:13.803Z,2.49
2023-01-13T10:10:32.215Z,2.41
2023-01-13T10:13:35.328Z,2.43
2023-01-13T10:16:46.070Z,2.61
2023-01-13T10:19:50.566Z,2.65
2023-01-13T10:23:34.544Z,2.70
2023-01-13T10:27:16.281Z,2.77
2023-01-13T10:30:31.684Z,2.78
2023-01-13T10:33:34.120Z,2.59
2023-01-13T10:36:36.705Z,2.89
2023-01-13T10:39:47.163Z,2.82
2023-01-13T10:43:05.626Z,2.79
2023-01-13T10:46:13.346Z,2.98
2023-01-13T10:49:36.516Z,2.54
2023-01-13T10:52:43.401Z,2.65
2023-01-13T10:56:01.990Z,2.98
2023-01-13T10:59:18.369Z,2.89
2023-01-13T11:02:30.677Z,2.81
2023-01-13T11:05:33.012Z,2.85
2023-01-13T11:08:45.244Z,2.98
2023-01-13T11:11:50.193Z,3.09
2023-01-13T11:14:53.141Z,3.26
2023-01-13T11:18:09.409Z,2.92
2023-01-13T11:21:22.515Z,2.96
2023-01-13T11:24:51.226Z,2.85
2023-01-13T11:28:02.510Z,2.86
2023-01-13T11:31:16.968Z,2.88
2023-01-13T11:34:25.828Z,2.94
2023-01-13T11:37:33.746Z,2.81
2023-01-13T11:40:46.036Z,2.79
2023-01-13T11:43:55.727Z,2.95
2023-01-13T11:46:58.612Z,2.78
2023-01-13T11:50:01.687Z,2.79
2023-01-13T11:53:08.776Z,2.61
2023-01-13T11:56:27.613Z,2.97
2023-01-13T12:00:15.316Z,2.84
2023-01-13T12:03:31.187Z,2.84
2023-01-13T12:06:40.609Z,3.01
2023-01-13T12:09:56.004Z,2.80
2023-01-13T12:13:33.777Z,2.86
2023-01-13T12:16:46.741Z,2.97
2023-01-13T12:19:51.149Z,2.81
2023-01-13T12:22:58.305Z,2.79
2023-01-13T12:26:12.327Z,3.07
2023-01-13T12:29:18.965Z,3.03
2023-01-13T12:32:44.816Z,2.93
2023-01-13T12:36:15.885Z,2.92
2023-01-13T12:39:20.971Z,2.97
2023-01-13T12:43:25.994Z,2.85
2023-01-13T12:46:28.180Z,3.06
2023-01-13T12:49:36.261Z,3.02
2023-01-13T12:52:45.436Z,2.92
2023-01-13T12:55:52.219Z,3.11
2023-01-13T12:59:14.366Z,3.11
2023-01-13T13:02:27.547Z,3.10
2023-01-13T13:05:39.040Z,3.18
2023-01-13T13:09:03.169Z,3.20
2023-01-13T13:12:49.413Z,3.53
2023-01-13T13:15:52.148Z,3.41
2023-01-13T13:19:21.243Z,3.25
2023-01-13T13:22:26.714Z,3.65
2023-01-13T13:25:32.086Z,3.66
2023-01-13T13:28:41.186Z,3.74
2023-01-13T13:32:07.854Z,3.74
2023-01-13T13:35:32.532Z,3.70
2023-01-13T13:39:25.782Z,3.72
2023-01-13T13:42:55.563Z,3.74
2023-01-13T13:46:16.575Z,3.72
2023-01-13T13:49:36.447Z,3.82
2023-01-13T13:52:43.429Z,3.75
2023-01-13T13:55:59.537Z,3.73
2023-01-13T13:59:02.046Z,3.84
2023-01-13T14:02:18.553Z,3.89
2023-01-13T14:05:24.890Z,3.79
2023-01-13T14:08:29.638Z,3.92
2023-01-13T14:11:33.667Z,3.81
2023-01-13T14:14:36.137Z,3.92
2023-01-13T14:17:38.624Z,3.98
2023-01-13T14:20:42.092Z,3.90
2023-01-13T14:23:56.567Z,3.86
2023-01-13T14:27:16.929Z,3.97
2023-01-13T14:30:19.726Z,3.93
2023-01-13T14:33:27.295Z,4.01
2023-01-13T14:36:32.853Z,4.04
2023-01-13T14:39:39.557Z,4.19
2023-01-13T14:42:42.301Z,4.30
2023-01-13T14:45:55.156Z,4.15
2023-01-13T14:49:01.415Z,4.01
2023-01-13T14:52:20.571Z,4.01
2023-01-13T14:55:40.309Z,4.05
2023-01-13T14:58:42.819Z,4.07
2023-01-13T15:01:45.651Z,4.01
2023-01-13T15:04:50.433Z,4.08
2023-01-13T15:07:54.667Z,4.07
2023-01-13T15:11:03.404Z,4.14
2023-01-13T15:14:10.702Z,4.05
2023-01-13T15:17:16.571Z,3.87
2023-01-13T15:20:22.681Z,4.05
2023-01-13T15:23:25.011Z,4.13
2023-01-13T15:26:29.935Z,4.07
2023-01-13T15:29:32.859Z,4.02
2023-01-13T15:32:35.321Z,3.88
2023-01-13T15:35:39.222Z,3.79
2023-01-13T15:38:41.732Z,3.77
2023-01-13T15:42:02.562Z,3.84
2023-01-13T15:45:24.036Z,3.85
2023-01-13T15:48:28.115Z,3.81
2023-01-13T15:51:30.611Z,3.88
2023-01-13T15:54:32.855Z,3.95
2023-01-13T15:57:37.791Z,3.84
2023-01-13T16:00:42.257Z,3.78
2023-01-13T16:03:45.174Z,3.94
2023-01-13T16:06:47.640Z,3.91
2023-01-13T16:09:50.372Z,3.88
2023-01-13T16:12:53.251Z,3.84
2023-01-13T16:15:56.808Z,3.88
2023-01-13T16:18:59.237Z,3.83
2023-01-13T16:22:01.762Z,3.82
2023-01-13T16:25:04.368Z,3.89
2023-01-13T16:28:06.873Z,3.94
2023-01-13T16:31:24.229Z,3.92
2023-01-13T16:34:26.936Z,3.99
2023-01-13T16:37:29.719Z,3.94
2023-01-13T16:40:36.600Z,3.99
2023-01-13T16:43:39.415Z,4.03
2023-01-13T16:46:44.552Z,4.04
2023-01-13T16:49:47.227Z,4.02
2023-01-13T16:52:49.956Z,4.02
2023-01-13T16:55:52.756Z,3.98
2023-01-13T16:58:58.736Z,4.12
2023-01-13T17:02:02.061Z,4.15
2023-01-13T17:05:05.881Z,4.08
2023-01-13T17:08:19.034Z,4.04
2023-01-13T17:11:22.095Z,3.99
2023-01-13T17:14:25.288Z,3.97
2023-01-13T17:17:28.207Z,4.00
2023-01-13T17:20:30.600Z,4.02
2023-01-13T17:23:33.454Z,3.98
2023-01-13T17:26:38.249Z,3.94
2023-01-13T17:29:40.911Z,4.00
2023-01-13T17:32:43.087Z,4.04
2023-01-13T17:35:46.684Z,4.05
2023-01-13T17:38:49.221Z,4.01
2023-01-13T17:41:55.980Z,4.07
2023-01-13T17:44:59.403Z,4.19
2023-01-13T17:48:02.047Z,4.13
2023-01-13T17:51:08.782Z,4.08
2023-01-13T17:54:12.447Z,4.13
2023-01-13T17:57:14.786Z,4.09
2023-01-13T18:00:18.667Z,4.07
2023-01-13T18:03:21.218Z,4.06
2023-01-13T18:06:23.648Z,4.07
2023-01-13T18:09:26.749Z,3.97
2023-01-13T18:12:29.330Z,4.16
2023-01-13T18:15:32.481Z,4.25
2023-01-13T18:18:34.766Z,4.20
2023-01-13T18:21:56.333Z,4.24
2023-01-13T18:25:17.737Z,4.27
2023-01-13T18:28:20.512Z,4.36
2023-01-13T18:31:22.840Z,4.24
2023-01-13T18:34:25.485Z,4.43
2023-01-13T18:37:27.811Z,4.46
2023-01-13T18:40:30.408Z,4.45
2023-01-13T18:43:33.343Z,4.46
2023-01-13T18:46:35.921Z,4.42
2023-01-13T18:49:38.218Z,4.33
2023-01-13T18:52:41.316Z,4.27
2023-01-13T18:55:44.006Z,4.22
2023-01-13T18:58:52.054Z,4.38
2023-01-13T19:01:55.072Z,4.54
2023-01-13T19:04:57.906Z,4.50
2023-01-13T19:08:00.607Z,4.37
2023-01-13T19:11:07.176Z,4.31
2023-01-13T19:14:09.732Z,4.31
2023-01-13T19:17:15.456Z,4.33
2023-01-13T19:20:17.966Z,4.32
2023-01-13T19:23:20.962Z,4.34
2023-01-13T19:26:23.207Z,4.31
2023-01-13T19:29:26.122Z,4.31
2023-01-13T19:32:30.558Z,4.35
2023-01-13T19:35:33.531Z,4.33
2023-01-13T19:38:37.671Z,4.38
2023-01-13T19:41:58.974Z,4.36
2023-01-13T19:45:19.876Z,4.23
2023-01-13T19:48:22.357Z,4.35
2023-01-13T19:51:25.011Z,4.38
2023-01-13T19:54:27.717Z,4.36
2023-01-13T19:57:30.750Z,4.49
2023-01-13T20:00:34.847Z,4.33
2023-01-13T20:03:38.040Z,4.31
2023-01-13T20:06:41.045Z,4.29
2023-01-13T20:09:44.813Z,4.36
2023-01-13T20:12:47.175Z,4.32
2023-01-13T20:15:49.765Z,4.41
2023-01-13T20:18:52.081Z,4.26
2023-01-13T20:21:54.710Z,4.29
2023-01-13T20:24:57.255Z,4.24
2023-01-13T20:28:01.978Z,4.20
2023-01-13T20:31:12.059Z,4.30
2023-01-13T20:34:15.425Z,4.29
2023-01-13T20:37:17.686Z,4.21
2023-01-13T20:40:20.726Z,4.09
2023-01-13T20:43:23.020Z,4.13
2023-01-13T20:46:25.764Z,4.11
2023-01-13T20:49:28.267Z,4.13
2023-01-13T20:52:30.917Z,4.16
2023-01-13T20:55:33.067Z,4.08
2023-01-13T20:58:37.966Z,3.99
2023-01-13T21:01:40.334Z,3.98
2023-01-13T21:04:43.293Z,3.93
2023-01-13T21:07:45.542Z,4.01
2023-01-13T21:10:47.976Z,3.91
2023-01-13T21:14:09.009Z,3.87
2023-01-13T21:17:33.361Z,3.81
2023-01-13T21:20:37.142Z,3.81
2023-01-13T21:23:46.743Z,3.85
2023-01-13T21:26:59.102Z,3.81
2023-01-13T21:30:01.654Z,3.73
2023-01-13T21:33:06.053Z,3.61
2023-01-13T21:36:12.734Z,3.64
2023-01-13T21:39:16.083Z,3.73
2023-01-13T21:42:37.336Z,3.85
2023-01-13T21:45:58.148Z,3.76
2023-01-13T21:49:01.174Z,3.73
2023-01-13T21:52:03.420Z,3.89
2023-01-13T21:55:21.560Z,3.90
2023-01-13T21:58:24.111Z,3.89
2023-01-13T22:01:26.786Z,3.84
2023-01-13T22:04:29.435Z,3.93
2023-01-13T22:07:33.328Z,3.92
2023-01-13T22:10:35.996Z,3.96
2023-01-13T22:14:17.236Z,3.80
2023-01-13T22:17:21.491Z,3.82
2023-01-13T22:20:23.796Z,3.81
2023-01-13T22:23:26.501Z,3.80
2023-01-13T22:26:28.786Z,3.76
2023-01-13T22:29:31.204Z,3.86
2023-01-13T22:32:36.380Z,3.89
2023-01-13T22:35:38.932Z,3.89
2023-01-13T22:38:41.187Z,3.98
2023-01-13T22:41:43.807Z,3.95
2023-01-13T22:44:46.039Z,4.02
2023-01-13T22:47:49.761Z,3.96
2023-01-13T22:50:52.341Z,3.94
2023-01-13T22:53:54.922Z,3.93
2023-01-13T22:56:57.169Z,4.10
2023-01-13T22:59:59.637Z,4.01
2023-01-13T23:03:01.838Z,3.95
2023-01-13T23:06:05.282Z,3.98
2023-01-13T23:09:08.079Z,4.09
2023-01-13T23:12:10.597Z,4.02
2023-01-13T23:15:12.833Z,3.97
2023-01-13T23:18:15.302Z,4.06
2023-01-13T23:21:23.808Z,4.08
2023-01-13T23:24:27.923Z,3.97
2023-01-13T23:27:30.283Z,4.09
2023-01-13T23:30:33.036Z,4.03
2023-01-13T23:33:37.535Z,3.97
2023-01-13T23:36:41.709Z,3.80
2023-01-13T23:39:44.123Z,3.78
2023-01-13T23:42:46.721Z,3.79
2023-01-13T23:45:49.489Z,3.83
2023-01-13T23:48:52.356Z,3.81
2023-01-13T23:51:54.722Z,3.82
2023-01-13T23:54:59.087Z,3.88
2023-01-13T23:58:01.555Z,3.90
